Time;durP1;ratioP1;P1;durP2;ratioP2;P2;SDS_P1;SDS_P2;PMS_P1;PMS_P2;Temp;Humidity;BMP_temperature;BMP_pressure;BME280_temperature;BME280_humidity;BME280_pressure;Samples;Min_cycle;Max_cycle;Signal;HPM_P1;HPM_P2
2021/01/02 00:00:51;;;;;;;13.80;12.47;;;;;;;-0.69;100.00;97489.50;5003214;28;20234;-73
2021/01/02 00:04:03;;;;;;;13.97;12.67;;;;;;;-0.63;100.00;97488.25;5001350;28;20220;-74
2021/01/02 00:06:58;;;;;;;13.57;12.27;;;;;;;-0.70;100.00;97492.22;5002446;28;20572;-74
2021/01/02 00:09:26;;;;;;;13.47;12.07;;;;;;;-0.63;100.00;97491.66;5003421;28;20318;-74
2021/01/02 00:12:03;;;;;;;14.47;13.07;;;;;;;-0.67;100.00;97495.41;5007788;28;20224;-74
2021/01/02 00:14:43;;;;;;;13.50;12.10;;;;;;;-0.79;100.00;97484.06;5003872;28;20945;-74
2021/01/02 00:17:25;;;;;;;13.70;12.40;;;;;;;-0.51;100.00;97482.19;5006573;28;20209;-74
2021/01/02 00:20:04;;;;;;;14.30;12.87;;;;;;;-0.71;100.00;97486.16;5012059;28;20204;-75
2021/01/02 00:22:40;;;;;;;14.10;12.70;;;;;;;-0.93;100.00;97485.03;5006475;28;20235;-73
2021/01/02 00:25:13;;;;;;;13.37;12.13;;;;;;;-1.00;100.00;97490.75;5005115;28;20211;-73
2021/01/02 00:27:46;;;;;;;13.90;12.30;;;;;;;-0.91;100.00;97490.13;5006635;28;20209;-75
2021/01/02 00:30:17;;;;;;;13.57;12.23;;;;;;;-0.93;100.00;97490.25;5003569;28;20220;-75
2021/01/02 00:32:50;;;;;;;12.23;11.03;;;;;;;-1.00;100.00;97488.16;5007467;28;21228;-74
2021/01/02 00:35:19;;;;;;;12.23;11.10;;;;;;;-0.91;100.00;97488.38;5007628;28;20440;-74
2021/01/02 00:37:47;;;;;;;12.00;10.80;;;;;;;-0.99;100.00;97492.41;5007308;28;20451;-74
2021/01/02 00:40:16;;;;;;;13.27;11.93;;;;;;;-0.97;100.00;97482.75;5006145;28;20736;-74
2021/01/02 00:42:50;;;;;;;13.00;11.73;;;;;;;-0.92;100.00;97488.47;5007467;28;20474;-73
2021/01/02 00:45:18;;;;;;;13.03;11.83;;;;;;;-0.93;100.00;97492.84;5008581;28;20307;-75
2021/01/02 00:47:45;;;;;;;12.73;11.53;;;;;;;-1.07;100.00;97493.78;5004463;28;20213;-75
2021/01/02 00:50:13;;;;;;;13.20;11.87;;;;;;;-0.97;100.00;97493.16;5013235;28;20233;-74
2021/01/02 00:53:12;;;;;;;13.67;12.40;;;;;;;-0.94;100.00;97492.94;5006764;28;20229;-72
2021/01/02 00:55:50;;;;;;;13.43;12.07;;;;;;;-0.89;100.00;97496.06;5006429;28;20220;-73
2021/01/02 00:58:29;;;;;;;12.83;11.57;;;;;;;-1.17;100.00;97500.50;5003911;28;20220;-71
2021/01/02 01:01:01;;;;;;;12.73;11.63;;;;;;;-1.23;100.00;97500.91;5004893;28;20772;-71
2021/01/02 01:03:51;;;;;;;12.20;11.00;;;;;;;-1.34;100.00;97504.22;5001016;28;20204;-72
2021/01/02 01:06:21;;;;;;;13.57;12.37;;;;;;;-1.36;100.00;97503.50;5003507;28;20694;-71
2021/01/02 01:08:53;;;;;;;11.27;10.27;;;;;;;-1.42;100.00;97501.31;5002254;28;20641;-72
2021/01/02 01:11:22;;;;;;;13.00;11.67;;;;;;;-1.18;100.00;97502.28;5009927;28;20742;-73
2021/01/02 01:13:55;;;;;;;13.40;12.17;;;;;;;-1.07;100.00;97501.59;5007876;28;20316;-71
2021/01/02 01:16:23;;;;;;;14.30;12.87;;;;;;;-1.10;100.00;97495.75;5002846;28;20213;-72
2021/01/02 01:18:54;;;;;;;13.50;12.20;;;;;;;-1.20;100.00;97500.72;5000295;28;20213;-72
2021/01/02 01:21:27;;;;;;;13.23;11.87;;;;;;;-1.18;100.00;97506.66;5000825;28;20239;-72
2021/01/02 01:24:13;;;;;;;13.17;11.97;;;;;;;-1.30;100.00;97508.31;5007628;28;20223;-73
2021/01/02 01:26:51;;;;;;;12.37;11.27;;;;;;;-1.35;100.00;97515.56;5014478;28;20228;-73
2021/01/02 01:29:26;;;;;;;14.20;12.23;;;;;;;-1.39;100.00;97512.34;4998317;28;20225;-73
2021/01/02 01:31:56;;;;;;;12.33;11.03;;;;;;;-1.50;100.00;97520.84;5014367;28;20240;-73
2021/01/02 01:34:26;;;;;;;11.50;10.40;;;;;;;-1.47;100.00;97525.84;5000575;28;20228;-73
2021/01/02 01:36:54;;;;;;;13.13;11.83;;;;;;;-1.62;100.00;97522.47;5011431;28;20295;-72
2021/01/02 01:39:23;;;;;;;14.07;12.77;;;;;;;-1.66;100.00;97521.00;5008744;28;20213;-73
2021/01/02 01:41:55;;;;;;;12.73;11.63;;;;;;;-1.76;100.00;97522.53;5008753;28;20237;-74
2021/01/02 01:44:54;;;;;;;13.60;12.30;;;;;;;-1.50;100.00;97523.44;5003563;28;20235;-72
2021/01/02 01:47:23;;;;;;;12.97;11.77;;;;;;;-1.61;100.00;97520.72;5000569;28;20245;-73
2021/01/02 01:50:25;;;;;;;13.83;12.53;;;;;;;-1.60;100.00;97525.78;5005186;28;20251;-75
2021/01/02 01:53:33;;;;;;;12.43;11.27;;;;;;;-1.51;100.00;97526.16;5007951;28;20546;-73
2021/01/02 01:56:10;;;;;;;11.50;10.50;;;;;;;-1.68;100.00;97517.66;4974690;28;20205;-74
2021/01/02 01:59:10;;;;;;;14.27;12.77;;;;;;;-1.54;100.00;97518.53;5001966;28;20196;-72
2021/01/02 02:01:38;;;;;;;12.57;11.27;;;;;;;-1.69;100.00;97515.19;4996897;28;20235;-74
2021/01/02 02:04:29;;;;;;;12.83;11.63;;;;;;;-1.73;100.00;97517.13;5003504;28;20206;-74
2021/01/02 02:07:00;;;;;;;11.80;10.70;;;;;;;-1.80;100.00;97518.47;5005908;28;20215;-73
2021/01/02 02:09:40;;;;;;;13.30;11.93;;;;;;;-1.87;100.00;97520.59;5009522;28;20293;-73
2021/01/02 02:12:15;;;;;;;13.37;11.83;;;;;;;-1.81;100.00;97522.81;5011957;28;20220;-73
2021/01/02 02:14:48;;;;;;;12.80;11.67;;;;;;;-1.65;100.00;97522.66;5008733;28;20219;-74
2021/01/02 02:17:18;;;;;;;12.77;11.57;;;;;;;-1.75;100.00;97516.41;5006111;28;20201;-73
2021/01/02 02:19:55;;;;;;;12.80;11.60;;;;;;;-1.82;100.00;97515.94;5007816;28;20201;-73
2021/01/02 02:22:23;;;;;;;12.73;11.53;;;;;;;-1.84;100.00;97524.78;5006111;28;20251;-75
2021/01/02 02:24:52;;;;;;;14.07;12.67;;;;;;;-1.79;100.00;97527.91;5015740;28;20204;-73
2021/01/02 02:27:25;;;;;;;12.83;11.53;;;;;;;-1.79;100.00;97518.34;5004471;28;20494;-73
2021/01/02 02:30:05;;;;;;;13.40;12.10;;;;;;;-1.76;100.00;97517.31;5012563;28;20224;-74
2021/01/02 02:32:38;;;;;;;12.80;11.70;;;;;;;-1.83;100.00;97527.28;5011118;28;20649;-74
2021/01/02 02:35:08;;;;;;;12.97;11.77;;;;;;;-1.79;100.00;97520.94;5011490;28;20262;-74
2021/01/02 02:37:39;;;;;;;12.87;11.57;;;;;;;-1.72;100.00;97525.75;5016590;28;20206;-74
2021/01/02 02:40:09;;;;;;;13.23;11.90;;;;;;;-1.79;100.00;97520.94;5002490;28;20208;-72
2021/01/02 02:42:38;;;;;;;12.90;11.70;;;;;;;-1.80;100.00;97526.25;5002390;28;21024;-73
2021/01/02 02:45:08;;;;;;;13.47;12.13;;;;;;;-1.73;100.00;97516.28;5000065;28;20439;-73
2021/01/02 02:47:39;;;;;;;13.93;12.63;;;;;;;-1.72;100.00;97521.38;5013237;28;20705;-74
2021/01/02 02:50:17;;;;;;;12.90;11.63;;;;;;;-1.69;100.00;97525.56;5004094;28;20221;-71
2021/01/02 02:52:45;;;;;;;13.63;12.23;;;;;;;-1.64;100.00;97523.50;5007787;28;20514;-73
2021/01/02 02:55:13;;;;;;;15.00;13.33;;;;;;;-1.66;100.00;97520.19;4998776;28;20224;-73
2021/01/02 02:57:47;;;;;;;12.57;11.27;;;;;;;-1.62;100.00;97525.06;4999775;28;20732;-74
2021/01/02 03:00:16;;;;;;;13.30;12.07;;;;;;;-1.66;100.00;97521.00;5004879;28;20224;-75
2021/01/02 03:02:47;;;;;;;12.13;10.83;;;;;;;-1.63;100.00;97525.19;5004278;28;20225;-75
2021/01/02 03:05:15;;;;;;;13.70;12.30;;;;;;;-1.47;100.00;97525.84;5008499;28;20361;-73
2021/01/02 03:07:43;;;;;;;12.13;11.03;;;;;;;-1.51;100.00;97529.56;5007009;28;20224;-74
2021/01/02 03:10:12;;;;;;;14.80;13.13;;;;;;;-1.27;100.00;97534.09;5014469;28;20581;-73
2021/01/02 03:12:43;;;;;;;12.97;11.73;;;;;;;-1.39;100.00;97527.09;5006731;28;20503;-73
2021/01/02 03:15:11;;;;;;;16.20;13.70;;;;;;;-1.24;100.00;97526.09;5012690;28;20215;-73
2021/01/02 03:17:40;;;;;;;16.77;14.60;;;;;;;-1.32;100.00;97520.59;5008982;28;20231;-70
2021/01/02 03:20:09;;;;;;;15.63;13.80;;;;;;;-1.31;100.00;97517.88;5009492;28;20196;-74
2021/01/02 03:22:38;;;;;;;14.93;13.40;;;;;;;-1.32;100.00;97510.19;5000155;28;20622;-73
2021/01/02 03:25:07;;;;;;;13.30;11.90;;;;;;;-1.38;100.00;97514.00;5001397;28;20208;-73
2021/01/02 03:27:34;;;;;;;15.47;13.87;;;;;;;-1.44;100.00;97506.63;4998364;28;20212;-76
2021/01/02 03:30:02;;;;;;;14.40;13.07;;;;;;;-1.49;100.00;97506.91;5008760;28;20216;-73
2021/01/02 03:32:29;;;;;;;17.27;15.47;;;;;;;-1.44;100.00;97505.78;4999518;28;20224;-73
2021/01/02 03:34:56;;;;;;;14.27;12.87;;;;;;;-1.48;100.00;97503.38;5001100;28;20292;-73
2021/01/02 03:37:25;;;;;;;15.03;13.47;;;;;;;-1.53;100.00;97505.44;4999072;28;20574;-73
2021/01/02 03:39:52;;;;;;;14.40;13.00;;;;;;;-1.56;100.00;97505.66;5007497;28;20197;-71
2021/01/02 03:42:18;;;;;;;16.87;14.97;;;;;;;-1.51;100.00;97502.75;5010731;28;20236;-73
2021/01/02 03:44:45;;;;;;;15.57;13.43;;;;;;;-1.43;100.00;97510.03;4997324;28;20216;-72
2021/01/02 03:47:12;;;;;;;15.10;13.57;;;;;;;-1.48;100.00;97512.94;5008781;28;20491;-72
2021/01/02 03:49:39;;;;;;;13.47;12.17;;;;;;;-1.47;100.00;97510.25;4998324;28;20228;-73
2021/01/02 03:52:07;;;;;;;13.37;12.03;;;;;;;-1.60;100.00;97512.78;4994298;28;20236;-72
2021/01/02 03:54:36;;;;;;;13.07;11.77;;;;;;;-1.55;100.00;97509.06;4999998;28;20669;-73
2021/01/02 03:57:03;;;;;;;13.17;11.80;;;;;;;-1.47;100.00;97517.22;5008019;28;20325;-73
2021/01/02 03:59:30;;;;;;;13.30;12.03;;;;;;;-1.43;100.00;97520.44;5010626;28;20209;-73
2021/01/02 04:01:58;;;;;;;14.90;13.43;;;;;;;-1.40;100.00;97517.63;5004948;28;20221;-72
2021/01/02 04:04:26;;;;;;;15.47;14.03;;;;;;;-1.45;100.00;97517.94;5012235;28;20212;-72
2021/01/02 04:06:53;;;;;;;101.87;61.80;;;;;;;-1.26;100.00;97514.97;5011115;28;20205;-72
2021/01/02 04:09:20;;;;;;;45.57;36.20;;;;;;;-1.27;100.00;97518.50;5009308;28;20215;-70
2021/01/02 04:11:49;;;;;;;24.30;21.10;;;;;;;-1.42;100.00;97522.09;5011644;28;20228;-72
2021/01/02 04:14:16;;;;;;;21.57;19.47;;;;;;;-1.22;100.00;97520.78;5004614;28;20849;-73
2021/01/02 04:16:43;;;;;;;14.57;13.07;;;;;;;-1.36;100.00;97529.50;5007678;28;20205;-72
2021/01/02 04:19:11;;;;;;;13.67;12.27;;;;;;;-1.52;100.00;97530.50;5009176;28;20205;-73
2021/01/02 04:21:38;;;;;;;14.23;12.47;;;;;;;-1.34;100.00;97532.81;5003516;28;21026;-74
2021/01/02 04:24:06;;;;;;;14.23;12.93;;;;;;;-1.49;100.00;97532.09;4999363;28;20459;-72
2021/01/02 04:26:33;;;;;;;14.43;13.07;;;;;;;-1.55;100.00;97532.44;5011211;28;20209;-73
2021/01/02 04:29:01;;;;;;;13.63;12.33;;;;;;;-1.49;100.00;97534.69;5007545;28;20216;-72
2021/01/02 04:31:33;;;;;;;14.80;13.30;;;;;;;-1.34;100.00;97532.81;5007641;28;20229;-72
2021/01/02 04:34:01;;;;;;;18.23;14.63;;;;;;;-1.43;100.00;97526.47;5001667;28;20697;-73
2021/01/02 04:36:28;;;;;;;16.57;14.83;;;;;;;-1.35;100.00;97528.56;5006671;28;20823;-73
2021/01/02 04:38:55;;;;;;;15.47;12.07;;;;;;;-1.16;100.00;97528.19;5008356;28;20216;-70
2021/01/02 04:41:22;;;;;;;13.80;12.40;;;;;;;-1.38;100.00;97527.00;5004310;28;20280;-72
2021/01/02 04:43:51;;;;;;;13.97;12.47;;;;;;;-1.41;100.00;97534.16;5003420;28;20209;-73
2021/01/02 04:46:19;;;;;;;13.27;11.97;;;;;;;-1.42;100.00;97527.28;5004592;28;20205;-73
2021/01/02 04:48:48;;;;;;;13.50;12.13;;;;;;;-1.27;100.00;97526.31;5005082;28;20663;-73
2021/01/02 04:51:16;;;;;;;13.20;11.80;;;;;;;-1.26;100.00;97521.94;5006744;28;20495;-74
2021/01/02 04:53:44;;;;;;;15.37;12.83;;;;;;;-1.08;100.00;97525.94;5003876;28;20432;-73
2021/01/02 04:56:11;;;;;;;14.17;12.70;;;;;;;-1.06;100.00;97520.59;4996027;28;20571;-73
2021/01/02 04:58:41;;;;;;;13.47;12.10;;;;;;;-1.19;100.00;97526.63;4996641;28;20231;-74
2021/01/02 05:01:10;;;;;;;13.70;12.27;;;;;;;-1.17;100.00;97524.75;4998099;28;20673;-72
2021/01/02 05:03:44;;;;;;;12.37;11.17;;;;;;;-1.37;100.00;97531.28;5000296;28;20209;-73
2021/01/02 05:06:11;;;;;;;14.30;12.90;;;;;;;-1.18;100.00;97530.03;5009150;28;20205;-73
2021/01/02 05:08:39;;;;;;;14.07;12.67;;;;;;;-1.17;100.00;97529.13;4998544;28;20205;-72
2021/01/02 05:11:07;;;;;;;13.10;11.83;;;;;;;-1.19;100.00;97533.59;4995429;28;20605;-72
2021/01/02 05:13:35;;;;;;;13.83;12.43;;;;;;;-1.36;100.00;97532.09;4994004;28;20210;-73
2021/01/02 05:16:16;;;;;;;15.53;12.07;;;;;;;-1.39;100.00;97527.94;5003136;28;20212;-73
2021/01/02 05:18:56;;;;;;;13.10;11.90;;;;;;;-1.34;100.00;97531.06;5003239;28;20209;-73
2021/01/02 05:21:24;;;;;;;12.40;11.23;;;;;;;-1.36;100.00;97542.50;5006977;28;20228;-73
2021/01/02 05:24:08;;;;;;;12.37;11.20;;;;;;;-1.41;100.00;97541.97;5006053;28;20220;-73
2021/01/02 05:26:36;;;;;;;14.07;12.67;;;;;;;-1.18;100.00;97546.50;5001016;28;20448;-72
2021/01/02 05:29:14;;;;;;;13.50;12.13;;;;;;;-1.12;100.00;97544.41;4991727;28;20259;-73
2021/01/02 05:31:43;;;;;;;13.30;12.00;;;;;;;-1.11;100.00;97549.53;4992732;28;20259;-71
2021/01/02 05:34:12;;;;;;;13.73;12.33;;;;;;;-1.23;100.00;97547.72;4991721;28;20377;-73
2021/01/02 05:36:39;;;;;;;13.17;11.87;;;;;;;-1.18;100.00;97545.66;4995333;28;20213;-73
2021/01/02 05:39:08;;;;;;;14.50;12.97;;;;;;;-1.14;100.00;97536.72;5002307;28;20288;-73
2021/01/02 05:41:54;;;;;;;13.47;12.17;;;;;;;-1.20;100.00;97534.53;5003707;28;20237;-73
2021/01/02 05:44:23;;;;;;;12.97;11.67;;;;;;;-1.09;100.00;97541.63;5004391;28;20205;-73
2021/01/02 05:46:52;;;;;;;13.83;12.37;;;;;;;-1.22;100.00;97534.63;5012734;28;20217;-72
2021/01/02 05:49:37;;;;;;;14.07;12.47;;;;;;;-1.29;100.00;97529.94;4999039;28;20487;-71
2021/01/02 05:52:05;;;;;;;13.13;11.80;;;;;;;-1.22;100.00;97529.44;4998101;28;20681;-72
2021/01/02 05:54:33;;;;;;;13.53;12.13;;;;;;;-1.27;100.00;97521.09;5000930;28;20581;-72
2021/01/02 05:57:03;;;;;;;14.47;13.07;;;;;;;-1.10;100.00;97517.41;5000074;28;20205;-71
2021/01/02 05:59:31;;;;;;;15.43;13.93;;;;;;;-1.25;100.00;97518.41;5005121;28;20307;-72
2021/01/02 06:01:59;;;;;;;15.93;14.03;;;;;;;-1.36;100.00;97525.13;4996015;28;20601;-72
2021/01/02 06:04:26;;;;;;;14.30;12.70;;;;;;;-1.31;100.00;97525.66;5000305;28;20201;-72
2021/01/02 06:07:09;;;;;;;13.60;12.03;;;;;;;-1.19;100.00;97529.22;5001961;28;20205;-72
2021/01/02 06:09:36;;;;;;;14.90;13.33;;;;;;;-1.20;100.00;97537.13;4997962;28;20460;-71
2021/01/02 06:12:05;;;;;;;16.03;14.33;;;;;;;-1.24;100.00;97541.72;5001772;28;20247;-71
2021/01/02 06:14:34;;;;;;;17.07;15.27;;;;;;;-1.11;100.00;97546.09;4998294;28;20205;-74
2021/01/02 06:17:06;;;;;;;17.27;15.50;;;;;;;-1.19;100.00;97550.03;4993939;28;20629;-73
2021/01/02 06:19:34;;;;;;;14.93;13.33;;;;;;;-1.33;100.00;97553.53;4995333;28;20201;-72
2021/01/02 06:22:03;;;;;;;13.87;12.57;;;;;;;-1.32;100.00;97556.97;5000495;28;20224;-72
2021/01/02 06:24:31;;;;;;;14.07;12.77;;;;;;;-1.20;100.00;97556.16;4997708;28;20229;-73
2021/01/02 06:26:59;;;;;;;13.93;12.53;;;;;;;-0.91;100.00;97557.75;5004281;28;20747;-71
2021/01/02 06:29:27;;;;;;;14.53;13.03;;;;;;;-0.92;100.00;97558.69;5008173;28;20744;-70
2021/01/02 06:31:54;;;;;;;15.30;13.67;;;;;;;-0.91;100.00;97550.81;5008146;28;20232;-70
2021/01/02 06:34:21;;;;;;;15.53;13.97;;;;;;;-0.95;100.00;97551.94;5011781;28;20354;-72
2021/01/02 06:36:54;;;;;;;15.30;13.33;;;;;;;-0.84;100.00;97546.00;5001052;28;20230;-70
2021/01/02 06:39:23;;;;;;;14.53;12.97;;;;;;;-0.86;100.00;97545.28;4999050;28;20220;-73
2021/01/02 06:41:52;;;;;;;16.37;14.60;;;;;;;-0.98;100.00;97556.50;4997768;28;20467;-70
2021/01/02 06:44:38;;;;;;;15.90;14.40;;;;;;;-0.85;100.00;97556.53;4997296;28;20317;-73
2021/01/02 06:47:21;;;;;;;17.00;14.63;;;;;;;-0.90;100.00;97555.06;4997868;28;20201;-71
2021/01/02 06:49:51;;;;;;;16.67;14.07;;;;;;;-0.82;100.00;97551.13;4997277;28;20456;-72
2021/01/02 06:52:28;;;;;;;15.40;13.30;;;;;;;-0.77;100.00;97551.63;4999080;28;20247;-71
2021/01/02 06:55:20;;;;;;;17.60;15.73;;;;;;;-0.74;100.00;97552.28;4996884;28;20200;-70
2021/01/02 06:57:48;;;;;;;17.00;14.73;;;;;;;-0.80;100.00;97549.25;4992452;28;20997;-71
2021/01/02 07:00:25;;;;;;;15.67;13.70;;;;;;;-0.87;100.00;97554.03;5000135;28;20787;-70
2021/01/02 07:02:52;;;;;;;15.53;13.93;;;;;;;-0.88;100.00;97553.19;4997825;28;21270;-72
2021/01/02 07:05:43;;;;;;;16.90;15.20;;;;;;;-0.91;100.00;97556.00;4998021;28;20209;-72
2021/01/02 07:08:40;;;;;;;19.23;15.70;;;;;;;-0.95;100.00;97556.31;4998518;28;20265;-71
2021/01/02 07:11:24;;;;;;;18.00;15.50;;;;;;;-0.90;100.00;97552.47;4964681;28;20228;-74
2021/01/02 07:14:18;;;;;;;21.97;16.47;;;;;;;-0.78;100.00;97560.38;4996426;28;20312;-71
2021/01/02 07:16:46;;;;;;;17.93;15.23;;;;;;;-0.76;100.00;97561.13;4998866;28;20213;-74
2021/01/02 07:19:36;;;;;;;20.60;17.43;;;;;;;-0.69;100.00;97572.75;4996407;28;20216;-72
2021/01/02 07:22:04;;;;;;;20.50;17.37;;;;;;;-0.79;100.00;97563.91;4997385;28;20600;-72
2021/01/02 07:24:33;;;;;;;20.47;18.17;;;;;;;-0.77;100.00;97569.84;4994655;28;20201;-70
2021/01/02 07:27:01;;;;;;;22.13;18.10;;;;;;;-0.88;100.00;97575.78;4998877;28;20209;-73
2021/01/02 07:29:30;;;;;;;20.00;17.57;;;;;;;-0.91;100.00;97575.97;4995873;28;20820;-72
2021/01/02 07:32:04;;;;;;;26.30;19.60;;;;;;;-1.01;100.00;97575.75;4997617;28;20488;-72
2021/01/02 07:34:32;;;;;;;21.10;17.30;;;;;;;-1.03;100.00;97575.00;4998435;28;20219;-71
2021/01/02 07:37:03;;;;;;;23.43;19.33;;;;;;;-0.76;100.00;97580.16;5000310;28;20205;-72
2021/01/02 07:39:30;;;;;;;17.93;15.90;;;;;;;-0.70;100.00;97591.91;5004167;28;20201;-71
2021/01/02 07:42:03;;;;;;;25.43;21.53;;;;;;;-0.90;100.00;97591.50;5004605;28;20233;-72
2021/01/02 07:44:31;;;;;;;19.27;17.27;;;;;;;-0.91;100.00;97597.63;4999652;28;20215;-71
2021/01/02 07:46:58;;;;;;;17.47;15.70;;;;;;;-0.84;100.00;97595.44;4995046;28;20204;-74
2021/01/02 07:49:25;;;;;;;23.50;19.07;;;;;;;-0.96;100.00;97585.84;4997531;28;20299;-71
2021/01/02 07:51:52;;;;;;;18.00;15.60;;;;;;;-0.68;100.00;97594.44;4994969;28;20253;-72
2021/01/02 07:54:32;;;;;;;22.47;18.27;;;;;;;-0.61;100.00;97590.47;5000785;28;20208;-73
2021/01/02 07:56:59;;;;;;;17.37;14.83;;;;;;;-0.50;100.00;97592.34;4997195;28;20772;-72
2021/01/02 07:59:31;;;;;;;16.10;14.53;;;;;;;-0.54;100.00;97596.94;4996819;28;21203;-72
2021/01/02 08:01:59;;;;;;;15.97;14.23;;;;;;;-0.61;100.00;97586.09;4995271;28;20717;-72
2021/01/02 08:04:28;;;;;;;16.23;14.30;;;;;;;-0.73;100.00;97590.38;4997450;28;20208;-71
2021/01/02 08:06:56;;;;;;;17.20;15.07;;;;;;;-0.58;100.00;97585.06;4996120;28;20216;-72
2021/01/02 08:09:24;;;;;;;15.87;14.33;;;;;;;-0.62;100.00;97586.22;5007823;28;20930;-72
2021/01/02 08:11:53;;;;;;;16.93;15.20;;;;;;;-0.64;100.00;97588.91;5006231;28;20228;-72
2021/01/02 08:14:21;;;;;;;17.87;14.60;;;;;;;-0.66;100.00;97584.75;4993700;28;20209;-73
2021/01/02 08:17:07;;;;;;;15.70;14.03;;;;;;;-0.77;100.00;97585.47;5004258;28;20209;-72
2021/01/02 08:19:36;;;;;;;16.90;15.20;;;;;;;-0.71;100.00;97590.25;4994994;28;20572;-71
2021/01/02 08:22:06;;;;;;;16.77;14.97;;;;;;;-0.57;100.00;97585.88;4998549;28;20224;-71
2021/01/02 08:24:33;;;;;;;17.97;16.07;;;;;;;-0.63;100.00;97593.16;5006397;28;20205;-73
2021/01/02 08:27:02;;;;;;;27.30;20.00;;;;;;;-0.46;100.00;97593.81;5001570;28;20207;-73
2021/01/02 08:29:31;;;;;;;59.93;32.87;;;;;;;-0.48;100.00;97593.91;5000533;28;20216;-73
2021/01/02 08:32:01;;;;;;;27.23;21.87;;;;;;;-0.41;100.00;97594.34;5000594;28;20254;-72
2021/01/02 08:34:32;;;;;;;26.27;22.87;;;;;;;-0.46;100.00;97596.41;5008760;28;21015;-73
2021/01/02 08:37:01;;;;;;;19.83;16.97;;;;;;;-0.46;100.00;97601.63;5002396;28;20221;-72
2021/01/02 08:39:28;;;;;;;22.93;18.03;;;;;;;-0.48;100.00;97593.91;4998946;28;20778;-75
2021/01/02 08:41:57;;;;;;;21.03;16.37;;;;;;;-0.44;100.00;97584.13;5003233;28;20801;-73
2021/01/02 08:44:31;;;;;;;21.40;16.07;;;;;;;-0.41;100.00;97583.06;5000529;28;20575;-72
2021/01/02 08:46:58;;;;;;;16.50;14.83;;;;;;;-0.33;100.00;97583.41;4998111;28;20209;-76
2021/01/02 08:49:31;;;;;;;19.73;15.90;;;;;;;-0.47;100.00;97577.34;5003166;28;20224;-74
2021/01/02 08:52:33;;;;;;;19.37;16.17;;;;;;;-0.60;100.00;97574.75;5004037;28;20254;-73
2021/01/02 08:55:12;;;;;;;23.40;16.57;;;;;;;-0.42;100.00;97581.41;4941094;28;20532;-73
2021/01/02 08:57:46;;;;;;;20.30;14.90;;;;;;;-0.30;100.00;97576.19;4993955;28;20220;-70
2021/01/02 09:00:23;;;;;;;19.57;16.13;;;;;;;-0.35;100.00;97580.06;5000817;28;20208;-73
2021/01/02 09:03:03;;;;;;;19.43;17.30;;;;;;;-0.28;100.00;97583.06;5002197;28;20211;-72
2021/01/02 09:05:31;;;;;;;17.63;15.47;;;;;;;-0.42;100.00;97577.03;4999135;28;20216;-74
2021/01/02 09:07:59;;;;;;;17.67;15.13;;;;;;;-0.43;100.00;97583.19;5006059;28;20227;-72
2021/01/02 09:10:29;;;;;;;16.23;14.60;;;;;;;-0.42;100.00;97582.25;5000169;28;20928;-73
2021/01/02 09:13:19;;;;;;;19.30;17.10;;;;;;;-0.40;100.00;97576.91;5003509;28;20209;-75
2021/01/02 09:15:50;;;;;;;17.07;15.33;;;;;;;-0.34;100.00;97577.34;4999720;28;20272;-72
2021/01/02 09:18:19;;;;;;;19.10;17.20;;;;;;;-0.35;100.00;97580.88;5002000;28;20228;-72
2021/01/02 09:20:47;;;;;;;18.43;16.53;;;;;;;-0.28;100.00;97578.69;5002903;28;20620;-72
2021/01/02 09:23:14;;;;;;;18.83;16.33;;;;;;;-0.21;100.00;97584.28;5004095;28;20451;-73
2021/01/02 09:25:41;;;;;;;19.00;16.97;;;;;;;-0.20;100.00;97588.56;5000570;28;20215;-71
2021/01/02 09:28:16;;;;;;;21.37;17.50;;;;;;;-0.36;100.00;97597.44;4993899;28;20209;-72
2021/01/02 09:30:44;;;;;;;21.30;19.07;;;;;;;-0.31;100.00;97599.75;4999326;28;20231;-74
2021/01/02 09:33:11;;;;;;;20.80;18.43;;;;;;;-0.24;100.00;97597.53;5002372;28;20551;-71
2021/01/02 09:35:38;;;;;;;19.20;17.30;;;;;;;-0.03;100.00;97597.81;5009180;28;20216;-72
2021/01/02 09:38:07;;;;;;;17.97;16.17;;;;;;;0.01;100.00;97601.91;5007842;28;20220;-73
2021/01/02 09:40:36;;;;;;;20.17;16.70;;;;;;;0.03;100.00;97599.19;4994018;28;20215;-74
2021/01/02 09:43:03;;;;;;;20.07;16.73;;;;;;;-0.05;100.00;97597.09;4999265;28;20298;-73
2021/01/02 09:45:30;;;;;;;18.17;16.47;;;;;;;0.20;100.00;97595.38;5002299;28;20553;-74
2021/01/02 09:47:58;;;;;;;20.67;16.33;;;;;;;0.05;100.00;97607.72;4995902;28;20208;-74
2021/01/02 09:50:25;;;;;;;17.53;15.70;;;;;;;0.13;100.00;97595.81;5005143;28;20223;-71
2021/01/02 09:52:52;;;;;;;17.80;15.90;;;;;;;0.02;100.00;97608.78;5007621;28;20519;-73
2021/01/02 09:55:19;;;;;;;20.97;16.10;;;;;;;0.16;100.00;97610.38;4997860;28;20220;-72
2021/01/02 09:57:47;;;;;;;18.47;16.43;;;;;;;0.14;100.00;97614.88;4998479;28;20289;-73
2021/01/02 10:00:16;;;;;;;23.60;19.13;;;;;;;0.25;100.00;97607.16;4997644;28;20464;-73
2021/01/02 10:02:43;;;;;;;27.33;24.57;;;;;;;0.47;100.00;97605.63;4996257;28;20937;-71
2021/01/02 10:05:13;;;;;;;19.50;15.80;;;;;;;0.59;100.00;97595.28;5005527;28;20205;-73
2021/01/02 10:07:40;;;;;;;30.23;21.73;;;;;;;0.68;100.00;97595.41;5005354;28;20528;-70
2021/01/02 10:10:08;;;;;;;20.13;17.33;;;;;;;0.75;100.00;97581.91;5001744;28;20318;-73
2021/01/02 10:12:35;;;;;;;18.07;15.70;;;;;;;0.94;100.00;97590.06;5007563;28;20783;-71
2021/01/02 10:15:03;;;;;;;16.37;14.67;;;;;;;1.02;100.00;97605.16;5006716;28;20588;-72
2021/01/02 10:17:30;;;;;;;17.00;14.83;;;;;;;0.98;100.00;97603.72;5000621;28;20649;-72
2021/01/02 10:19:59;;;;;;;17.37;15.67;;;;;;;1.15;100.00;97600.69;5000090;28;20208;-71
2021/01/02 10:22:26;;;;;;;17.63;15.83;;;;;;;1.09;100.00;97600.31;5001192;28;20460;-72
2021/01/02 10:24:54;;;;;;;20.50;16.60;;;;;;;1.34;100.00;97601.09;4996503;28;20471;-72
2021/01/02 10:27:22;;;;;;;19.23;16.20;;;;;;;1.40;100.00;97596.25;4997725;28;20561;-73
2021/01/02 10:29:52;;;;;;;15.47;13.37;;;;;;;1.57;100.00;97601.97;4990492;28;20611;-73
2021/01/02 10:32:22;;;;;;;17.33;15.47;;;;;;;1.62;100.00;97599.00;4980571;28;20249;-71
2021/01/02 10:34:49;;;;;;;22.20;18.40;;;;;;;1.38;100.00;97602.53;5002772;28;20224;-73
2021/01/02 10:37:18;;;;;;;25.70;20.13;;;;;;;1.57;98.66;97597.59;5002293;28;20205;-71
2021/01/02 10:39:45;;;;;;;24.20;18.33;;;;;;;1.14;100.00;97604.25;4999550;28;20282;-72
2021/01/02 10:42:14;;;;;;;24.53;18.80;;;;;;;1.33;100.00;97605.50;4997322;28;20244;-75
2021/01/02 10:44:43;;;;;;;28.33;20.60;;;;;;;1.27;100.00;97598.94;4999480;28;20209;-73
2021/01/02 10:47:11;;;;;;;15.27;13.53;;;;;;;1.32;100.00;97597.78;4996576;28;20214;-74
2021/01/02 10:49:41;;;;;;;18.10;15.23;;;;;;;1.27;100.00;97591.13;5002015;28;20854;-73
2021/01/02 10:52:08;;;;;;;18.10;16.20;;;;;;;1.42;100.00;97591.75;4990641;28;20233;-74
2021/01/02 10:54:35;;;;;;;22.37;16.67;;;;;;;1.08;100.00;97581.22;4994715;28;20212;-74
2021/01/02 10:57:02;;;;;;;14.60;13.10;;;;;;;1.06;98.74;97583.13;5001930;28;20200;-75
2021/01/02 10:59:29;;;;;;;14.43;13.03;;;;;;;1.12;100.00;97569.59;4999170;28;20561;-75
2021/01/02 11:01:56;;;;;;;13.40;12.00;;;;;;;1.21;100.00;97572.47;4988064;28;20218;-75
2021/01/02 11:04:26;;;;;;;13.87;12.47;;;;;;;1.25;98.96;97561.69;4997977;28;20777;-75
2021/01/02 11:06:55;;;;;;;13.73;12.33;;;;;;;1.30;100.00;97551.72;4995839;28;20216;-75
2021/01/02 11:09:24;;;;;;;14.70;12.73;;;;;;;1.22;98.96;97548.03;4991490;28;20213;-74
2021/01/02 11:11:53;;;;;;;13.43;12.10;;;;;;;1.14;99.04;97559.88;5000348;28;20644;-75
2021/01/02 11:14:20;;;;;;;13.97;12.57;;;;;;;1.19;96.97;97549.09;4997967;28;20205;-75
2021/01/02 11:16:48;;;;;;;13.73;12.27;;;;;;;1.28;97.77;97552.78;5000932;28;20220;-75
2021/01/02 11:19:17;;;;;;;14.13;12.73;;;;;;;1.54;95.26;97552.56;4993463;28;20494;-75
2021/01/02 11:21:45;;;;;;;14.13;12.73;;;;;;;1.38;97.00;97547.69;4998036;28;20228;-74
2021/01/02 11:24:15;;;;;;;14.47;12.90;;;;;;;1.32;96.46;97551.59;4997084;28;20212;-74
2021/01/02 11:26:45;;;;;;;14.47;12.97;;;;;;;1.17;98.47;97545.78;4998485;28;20200;-73
2021/01/02 11:29:12;;;;;;;13.73;12.07;;;;;;;1.34;97.83;97544.50;4997567;28;20311;-75
2021/01/02 11:31:40;;;;;;;13.17;11.63;;;;;;;1.67;95.01;97558.50;4998696;28;20235;-73